sensor_id;sensor_type;location;lat;lon;timestamp;P1;durP1;ratioP1;P2;durP2;ratioP2
55655;SDS011;41530;52.382;5.270;2023-12-28T00:02:13;1.85;;;0.85;;
55655;SDS011;41530;52.382;5.270;2023-12-28T00:04:40;1.15;;;1.00;;
55655;SDS011;41530;52.382;5.270;2023-12-28T00:07:07;1.02;;;0.80;;
55655;SDS011;41530;52.382;5.270;2023-12-28T00:09:33;1.58;;;0.82;;
55655;SDS011;41530;52.382;5.270;2023-12-28T00:12:03;1.67;;;0.85;;
55655;SDS011;41530;52.382;5.270;2023-12-28T00:14:31;1.40;;;0.90;;
55655;SDS011;41530;52.382;5.270;2023-12-28T00:16:57;1.55;;;0.98;;
55655;SDS011;41530;52.382;5.270;2023-12-28T00:19:24;0.93;;;0.82;;
55655;SDS011;41530;52.382;5.270;2023-12-28T00:21:51;1.15;;;0.80;;
55655;SDS011;41530;52.382;5.270;2023-12-28T00:24:19;1.48;;;1.15;;
55655;SDS011;41530;52.382;5.270;2023-12-28T00:26:46;1.45;;;0.80;;
55655;SDS011;41530;52.382;5.270;2023-12-28T00:29:13;2.35;;;1.30;;
55655;SDS011;41530;52.382;5.270;2023-12-28T00:31:40;1.70;;;1.00;;
55655;SDS011;41530;52.382;5.270;2023-12-28T00:34:07;1.23;;;0.90;;
55655;SDS011;41530;52.382;5.270;2023-12-28T00:36:33;1.40;;;0.98;;
55655;SDS011;41530;52.382;5.270;2023-12-28T00:39:00;1.67;;;0.98;;
55655;SDS011;41530;52.382;5.270;2023-12-28T00:41:27;1.35;;;0.80;;
55655;SDS011;41530;52.382;5.270;2023-12-28T00:43:53;1.30;;;1.00;;
55655;SDS011;41530;52.382;5.270;2023-12-28T00:46:20;1.85;;;1.00;;
55655;SDS011;41530;52.382;5.270;2023-12-28T00:48:47;1.23;;;0.95;;
55655;SDS011;41530;52.382;5.270;2023-12-28T00:51:13;1.60;;;0.88;;
55655;SDS011;41530;52.382;5.270;2023-12-28T00:53:41;1.77;;;0.80;;
55655;SDS011;41530;52.382;5.270;2023-12-28T00:56:09;1.38;;;1.00;;
55655;SDS011;41530;52.382;5.270;2023-12-28T00:58:38;1.33;;;1.00;;
55655;SDS011;41530;52.382;5.270;2023-12-28T01:01:10;1.20;;;0.98;;
55655;SDS011;41530;52.382;5.270;2023-12-28T01:03:36;1.15;;;0.93;;
55655;SDS011;41530;52.382;5.270;2023-12-28T01:06:04;2.83;;;1.08;;
55655;SDS011;41530;52.382;5.270;2023-12-28T01:08:31;1.02;;;0.82;;
55655;SDS011;41530;52.382;5.270;2023-12-28T01:11:00;2.28;;;1.00;;
55655;SDS011;41530;52.382;5.270;2023-12-28T01:13:28;1.42;;;1.00;;
55655;SDS011;41530;52.382;5.270;2023-12-28T01:15:58;2.10;;;1.23;;
55655;SDS011;41530;52.382;5.270;2023-12-28T01:18:25;2.80;;;1.00;;
55655;SDS011;41530;52.382;5.270;2023-12-28T01:20:52;1.30;;;1.00;;
55655;SDS011;41530;52.382;5.270;2023-12-28T01:23:19;1.23;;;0.80;;
55655;SDS011;41530;52.382;5.270;2023-12-28T01:25:45;2.80;;;1.10;;
55655;SDS011;41530;52.382;5.270;2023-12-28T01:28:12;1.67;;;0.90;;
55655;SDS011;41530;52.382;5.270;2023-12-28T01:30:39;2.05;;;0.95;;
55655;SDS011;41530;52.382;5.270;2023-12-28T01:33:05;1.35;;;0.85;;
55655;SDS011;41530;52.382;5.270;2023-12-28T01:35:32;1.88;;;1.00;;
55655;SDS011;41530;52.382;5.270;2023-12-28T01:37:59;1.67;;;0.80;;
55655;SDS011;41530;52.382;5.270;2023-12-28T01:40:27;1.27;;;0.85;;
55655;SDS011;41530;52.382;5.270;2023-12-28T01:42:53;4.53;;;0.90;;
55655;SDS011;41530;52.382;5.270;2023-12-28T01:45:20;1.63;;;0.90;;
55655;SDS011;41530;52.382;5.270;2023-12-28T01:47:47;1.00;;;0.70;;
55655;SDS011;41530;52.382;5.270;2023-12-28T01:50:15;1.75;;;1.10;;
55655;SDS011;41530;52.382;5.270;2023-12-28T01:52:42;1.00;;;0.70;;
55655;SDS011;41530;52.382;5.270;2023-12-28T01:55:09;1.35;;;0.90;;
55655;SDS011;41530;52.382;5.270;2023-12-28T01:57:36;1.73;;;0.90;;
55655;SDS011;41530;52.382;5.270;2023-12-28T02:00:03;1.77;;;1.10;;
55655;SDS011;41530;52.382;5.270;2023-12-28T02:02:31;1.77;;;0.90;;
55655;SDS011;41530;52.382;5.270;2023-12-28T02:04:58;2.22;;;0.93;;
55655;SDS011;41530;52.382;5.270;2023-12-28T02:07:25;0.80;;;0.70;;
55655;SDS011;41530;52.382;5.270;2023-12-28T02:09:53;1.35;;;0.80;;
55655;SDS011;41530;52.382;5.270;2023-12-28T02:12:20;1.05;;;0.80;;
55655;SDS011;41530;52.382;5.270;2023-12-28T02:14:47;1.48;;;0.75;;
55655;SDS011;41530;52.382;5.270;2023-12-28T02:17:26;1.83;;;0.90;;
55655;SDS011;41530;52.382;5.270;2023-12-28T02:20:00;1.30;;;1.02;;
55655;SDS011;41530;52.382;5.270;2023-12-28T02:22:31;1.80;;;1.10;;
55655;SDS011;41530;52.382;5.270;2023-12-28T02:25:08;1.70;;;0.80;;
55655;SDS011;41530;52.382;5.270;2023-12-28T02:27:45;2.38;;;0.90;;
55655;SDS011;41530;52.382;5.270;2023-12-28T02:30:14;2.25;;;1.05;;
55655;SDS011;41530;52.382;5.270;2023-12-28T02:32:44;1.88;;;0.85;;
55655;SDS011;41530;52.382;5.270;2023-12-28T02:38:09;2.95;;;0.90;;
55655;SDS011;41530;52.382;5.270;2023-12-28T02:40:37;1.15;;;0.85;;
55655;SDS011;41530;52.382;5.270;2023-12-28T02:43:05;3.17;;;0.90;;
55655;SDS011;41530;52.382;5.270;2023-12-28T02:45:33;1.17;;;0.82;;
55655;SDS011;41530;52.382;5.270;2023-12-28T02:48:01;1.30;;;0.82;;
55655;SDS011;41530;52.382;5.270;2023-12-28T02:50:29;1.88;;;0.85;;
55655;SDS011;41530;52.382;5.270;2023-12-28T02:52:59;0.95;;;0.82;;
55655;SDS011;41530;52.382;5.270;2023-12-28T02:55:26;1.95;;;1.00;;
55655;SDS011;41530;52.382;5.270;2023-12-28T02:57:53;1.17;;;0.82;;
55655;SDS011;41530;52.382;5.270;2023-12-28T03:00:22;1.02;;;0.95;;
55655;SDS011;41530;52.382;5.270;2023-12-28T03:02:49;1.40;;;1.10;;
55655;SDS011;41530;52.382;5.270;2023-12-28T03:05:16;2.30;;;0.70;;
55655;SDS011;41530;52.382;5.270;2023-12-28T03:07:43;2.13;;;0.88;;
55655;SDS011;41530;52.382;5.270;2023-12-28T03:10:09;2.70;;;1.17;;
55655;SDS011;41530;52.382;5.270;2023-12-28T03:12:40;2.00;;;1.00;;
55655;SDS011;41530;52.382;5.270;2023-12-28T03:15:07;1.65;;;0.90;;
55655;SDS011;41530;52.382;5.270;2023-12-28T03:17:34;2.20;;;1.00;;
55655;SDS011;41530;52.382;5.270;2023-12-28T03:20:03;1.73;;;1.00;;
55655;SDS011;41530;52.382;5.270;2023-12-28T03:22:30;2.30;;;1.08;;
55655;SDS011;41530;52.382;5.270;2023-12-28T03:24:57;1.77;;;1.00;;
55655;SDS011;41530;52.382;5.270;2023-12-28T03:27:24;1.00;;;0.90;;
55655;SDS011;41530;52.382;5.270;2023-12-28T03:29:50;2.33;;;0.98;;
55655;SDS011;41530;52.382;5.270;2023-12-28T03:32:17;1.00;;;0.90;;
55655;SDS011;41530;52.382;5.270;2023-12-28T03:34:44;1.02;;;0.77;;
55655;SDS011;41530;52.382;5.270;2023-12-28T03:37:10;1.20;;;0.80;;
55655;SDS011;41530;52.382;5.270;2023-12-28T03:39:38;1.27;;;0.85;;
55655;SDS011;41530;52.382;5.270;2023-12-28T03:42:05;2.97;;;1.00;;
55655;SDS011;41530;52.382;5.270;2023-12-28T03:44:31;1.77;;;0.85;;
55655;SDS011;41530;52.382;5.270;2023-12-28T03:46:58;2.03;;;1.10;;
55655;SDS011;41530;52.382;5.270;2023-12-28T03:49:26;1.33;;;0.75;;
55655;SDS011;41530;52.382;5.270;2023-12-28T03:51:53;2.45;;;0.90;;
55655;SDS011;41530;52.382;5.270;2023-12-28T03:54:20;2.83;;;0.98;;
55655;SDS011;41530;52.382;5.270;2023-12-28T03:56:47;2.50;;;1.15;;
55655;SDS011;41530;52.382;5.270;2023-12-28T03:59:13;2.00;;;0.80;;
55655;SDS011;41530;52.382;5.270;2023-12-28T04:01:44;1.45;;;0.88;;
55655;SDS011;41530;52.382;5.270;2023-12-28T04:04:11;3.45;;;1.23;;
55655;SDS011;41530;52.382;5.270;2023-12-28T04:06:38;3.58;;;0.85;;
55655;SDS011;41530;52.382;5.270;2023-12-28T04:09:05;1.52;;;0.70;;
55655;SDS011;41530;52.382;5.270;2023-12-28T04:11:34;1.70;;;0.85;;
55655;SDS011;41530;52.382;5.270;2023-12-28T04:14:01;2.55;;;1.00;;
55655;SDS011;41530;52.382;5.270;2023-12-28T04:16:28;2.65;;;0.93;;
55655;SDS011;41530;52.382;5.270;2023-12-28T04:18:55;1.40;;;0.82;;
55655;SDS011;41530;52.382;5.270;2023-12-28T04:21:21;2.35;;;0.80;;
55655;SDS011;41530;52.382;5.270;2023-12-28T04:23:48;0.82;;;0.77;;
55655;SDS011;41530;52.382;5.270;2023-12-28T04:26:17;0.95;;;0.80;;
55655;SDS011;41530;52.382;5.270;2023-12-28T04:28:44;1.92;;;1.00;;
55655;SDS011;41530;52.382;5.270;2023-12-28T04:31:11;2.17;;;0.82;;
55655;SDS011;41530;52.382;5.270;2023-12-28T04:33:38;3.33;;;1.00;;
55655;SDS011;41530;52.382;5.270;2023-12-28T04:36:05;2.20;;;0.88;;
55655;SDS011;41530;52.382;5.270;2023-12-28T04:38:32;1.05;;;0.93;;
55655;SDS011;41530;52.382;5.270;2023-12-28T04:40:59;1.77;;;0.80;;
55655;SDS011;41530;52.382;5.270;2023-12-28T04:43:27;2.10;;;0.70;;
55655;SDS011;41530;52.382;5.270;2023-12-28T04:45:54;1.65;;;1.10;;
55655;SDS011;41530;52.382;5.270;2023-12-28T04:48:21;1.98;;;1.02;;
55655;SDS011;41530;52.382;5.270;2023-12-28T04:50:52;3.45;;;1.00;;
55655;SDS011;41530;52.382;5.270;2023-12-28T04:53:19;1.30;;;0.70;;
55655;SDS011;41530;52.382;5.270;2023-12-28T04:55:46;2.10;;;0.75;;
55655;SDS011;41530;52.382;5.270;2023-12-28T04:58:13;1.55;;;0.90;;
55655;SDS011;41530;52.382;5.270;2023-12-28T05:00:40;3.00;;;1.00;;
55655;SDS011;41530;52.382;5.270;2023-12-28T05:03:07;1.25;;;0.70;;
55655;SDS011;41530;52.382;5.270;2023-12-28T05:05:34;1.55;;;0.80;;
55655;SDS011;41530;52.382;5.270;2023-12-28T05:08:00;1.38;;;0.80;;
55655;SDS011;41530;52.382;5.270;2023-12-28T05:10:27;2.33;;;0.80;;
55655;SDS011;41530;52.382;5.270;2023-12-28T05:12:54;2.03;;;0.90;;
55655;SDS011;41530;52.382;5.270;2023-12-28T05:15:27;2.80;;;0.80;;
55655;SDS011;41530;52.382;5.270;2023-12-28T05:17:54;1.85;;;0.77;;
55655;SDS011;41530;52.382;5.270;2023-12-28T05:20:21;1.30;;;0.80;;
55655;SDS011;41530;52.382;5.270;2023-12-28T05:22:48;3.60;;;1.10;;
55655;SDS011;41530;52.382;5.270;2023-12-28T05:25:15;2.30;;;1.00;;
55655;SDS011;41530;52.382;5.270;2023-12-28T05:27:41;2.55;;;1.17;;
55655;SDS011;41530;52.382;5.270;2023-12-28T05:30:09;2.42;;;0.80;;
55655;SDS011;41530;52.382;5.270;2023-12-28T05:32:38;2.25;;;0.93;;
55655;SDS011;41530;52.382;5.270;2023-12-28T05:35:05;2.88;;;1.00;;
55655;SDS011;41530;52.382;5.270;2023-12-28T05:37:32;2.25;;;0.85;;
55655;SDS011;41530;52.382;5.270;2023-12-28T05:39:58;3.45;;;1.00;;
55655;SDS011;41530;52.382;5.270;2023-12-28T05:42:25;1.42;;;0.85;;
55655;SDS011;41530;52.382;5.270;2023-12-28T05:44:52;2.30;;;0.80;;
55655;SDS011;41530;52.382;5.270;2023-12-28T05:47:19;3.30;;;0.90;;
55655;SDS011;41530;52.382;5.270;2023-12-28T05:49:46;3.40;;;0.95;;
55655;SDS011;41530;52.382;5.270;2023-12-28T05:52:13;4.10;;;0.93;;
55655;SDS011;41530;52.382;5.270;2023-12-28T05:54:41;3.72;;;0.98;;
55655;SDS011;41530;52.382;5.270;2023-12-28T05:57:10;2.53;;;0.77;;
55655;SDS011;41530;52.382;5.270;2023-12-28T05:59:39;3.47;;;0.85;;
55655;SDS011;41530;52.382;5.270;2023-12-28T06:02:06;3.70;;;0.90;;
55655;SDS011;41530;52.382;5.270;2023-12-28T06:04:33;1.50;;;0.80;;
55655;SDS011;41530;52.382;5.270;2023-12-28T06:07:02;3.05;;;0.88;;
55655;SDS011;41530;52.382;5.270;2023-12-28T06:09:32;1.95;;;1.00;;
55655;SDS011;41530;52.382;5.270;2023-12-28T06:11:59;2.38;;;0.90;;
55655;SDS011;41530;52.382;5.270;2023-12-28T06:14:26;3.55;;;0.85;;
55655;SDS011;41530;52.382;5.270;2023-12-28T06:16:53;3.17;;;0.95;;
55655;SDS011;41530;52.382;5.270;2023-12-28T06:19:19;4.20;;;0.82;;
55655;SDS011;41530;52.382;5.270;2023-12-28T06:21:46;2.70;;;0.70;;
55655;SDS011;41530;52.382;5.270;2023-12-28T06:24:13;2.78;;;1.02;;
55655;SDS011;41530;52.382;5.270;2023-12-28T06:26:41;2.80;;;1.00;;
55655;SDS011;41530;52.382;5.270;2023-12-28T06:29:08;1.73;;;0.90;;
55655;SDS011;41530;52.382;5.270;2023-12-28T06:31:36;4.03;;;1.00;;
55655;SDS011;41530;52.382;5.270;2023-12-28T06:34:04;3.15;;;0.88;;
55655;SDS011;41530;52.382;5.270;2023-12-28T06:36:32;4.60;;;0.90;;
55655;SDS011;41530;52.382;5.270;2023-12-28T06:38:59;2.90;;;0.90;;
55655;SDS011;41530;52.382;5.270;2023-12-28T06:41:26;2.58;;;0.88;;
55655;SDS011;41530;52.382;5.270;2023-12-28T06:43:53;4.55;;;1.05;;
55655;SDS011;41530;52.382;5.270;2023-12-28T06:46:19;3.10;;;1.13;;
55655;SDS011;41530;52.382;5.270;2023-12-28T06:48:46;4.00;;;1.15;;
55655;SDS011;41530;52.382;5.270;2023-12-28T06:51:17;4.32;;;0.90;;
55655;SDS011;41530;52.382;5.270;2023-12-28T06:53:46;2.25;;;0.80;;
55655;SDS011;41530;52.382;5.270;2023-12-28T06:56:13;4.55;;;0.95;;
55655;SDS011;41530;52.382;5.270;2023-12-28T06:58:40;2.10;;;0.85;;
55655;SDS011;41530;52.382;5.270;2023-12-28T07:01:07;1.95;;;0.90;;
55655;SDS011;41530;52.382;5.270;2023-12-28T07:03:34;2.30;;;0.80;;
55655;SDS011;41530;52.382;5.270;2023-12-28T07:06:01;2.08;;;0.82;;
55655;SDS011;41530;52.382;5.270;2023-12-28T07:08:31;3.03;;;1.15;;
55655;SDS011;41530;52.382;5.270;2023-12-28T07:11:01;3.38;;;1.00;;
55655;SDS011;41530;52.382;5.270;2023-12-28T07:13:32;2.38;;;0.90;;
55655;SDS011;41530;52.382;5.270;2023-12-28T07:15:59;3.08;;;0.80;;
55655;SDS011;41530;52.382;5.270;2023-12-28T07:18:27;4.20;;;1.08;;
55655;SDS011;41530;52.382;5.270;2023-12-28T07:20:55;4.38;;;1.10;;
55655;SDS011;41530;52.382;5.270;2023-12-28T07:23:25;3.25;;;1.05;;
55655;SDS011;41530;52.382;5.270;2023-12-28T07:25:51;4.40;;;1.15;;
55655;SDS011;41530;52.382;5.270;2023-12-28T07:28:18;2.50;;;1.00;;
55655;SDS011;41530;52.382;5.270;2023-12-28T07:30:45;2.53;;;1.00;;
55655;SDS011;41530;52.382;5.270;2023-12-28T07:33:12;2.72;;;0.80;;
55655;SDS011;41530;52.382;5.270;2023-12-28T07:35:38;3.17;;;1.10;;
55655;SDS011;41530;52.382;5.270;2023-12-28T07:38:05;5.00;;;1.05;;
55655;SDS011;41530;52.382;5.270;2023-12-28T07:40:32;3.63;;;1.10;;
55655;SDS011;41530;52.382;5.270;2023-12-28T07:42:59;3.95;;;1.05;;
55655;SDS011;41530;52.382;5.270;2023-12-28T07:45:27;2.67;;;0.60;;
55655;SDS011;41530;52.382;5.270;2023-12-28T07:47:54;5.10;;;1.30;;
55655;SDS011;41530;52.382;5.270;2023-12-28T07:50:21;4.50;;;0.93;;
55655;SDS011;41530;52.382;5.270;2023-12-28T07:52:48;2.42;;;0.90;;
55655;SDS011;41530;52.382;5.270;2023-12-28T07:55:18;3.40;;;0.90;;
55655;SDS011;41530;52.382;5.270;2023-12-28T07:57:45;2.47;;;0.90;;
55655;SDS011;41530;52.382;5.270;2023-12-28T08:00:12;4.72;;;1.23;;
55655;SDS011;41530;52.382;5.270;2023-12-28T08:02:39;3.55;;;0.80;;
55655;SDS011;41530;52.382;5.270;2023-12-28T08:05:08;1.83;;;1.00;;
55655;SDS011;41530;52.382;5.270;2023-12-28T08:07:35;4.18;;;0.77;;
55655;SDS011;41530;52.382;5.270;2023-12-28T08:10:01;4.00;;;1.25;;
55655;SDS011;41530;52.382;5.270;2023-12-28T08:12:29;4.60;;;0.95;;
55655;SDS011;41530;52.382;5.270;2023-12-28T08:14:55;2.60;;;0.82;;
55655;SDS011;41530;52.382;5.270;2023-12-28T08:17:22;4.38;;;0.90;;
55655;SDS011;41530;52.382;5.270;2023-12-28T08:19:49;4.30;;;1.00;;
55655;SDS011;41530;52.382;5.270;2023-12-28T08:22:19;3.53;;;0.98;;
55655;SDS011;41530;52.382;5.270;2023-12-28T08:24:45;3.22;;;1.00;;
55655;SDS011;41530;52.382;5.270;2023-12-28T08:27:12;4.15;;;1.08;;
55655;SDS011;41530;52.382;5.270;2023-12-28T08:29:40;4.00;;;1.10;;
55655;SDS011;41530;52.382;5.270;2023-12-28T08:32:08;3.42;;;0.85;;
55655;SDS011;41530;52.382;5.270;2023-12-28T08:34:37;2.40;;;1.08;;
55655;SDS011;41530;52.382;5.270;2023-12-28T08:37:04;3.72;;;0.80;;
55655;SDS011;41530;52.382;5.270;2023-12-28T08:39:31;4.72;;;1.45;;
55655;SDS011;41530;52.382;5.270;2023-12-28T08:41:58;3.35;;;1.02;;
55655;SDS011;41530;52.382;5.270;2023-12-28T08:44:24;4.90;;;0.90;;
55655;SDS011;41530;52.382;5.270;2023-12-28T08:46:51;4.00;;;1.10;;
55655;SDS011;41530;52.382;5.270;2023-12-28T08:49:18;7.20;;;1.02;;
55655;SDS011;41530;52.382;5.270;2023-12-28T08:51:45;6.07;;;1.23;;
55655;SDS011;41530;52.382;5.270;2023-12-28T08:54:11;6.18;;;1.20;;
55655;SDS011;41530;52.382;5.270;2023-12-28T08:56:38;1.67;;;0.70;;
55655;SDS011;41530;52.382;5.270;2023-12-28T08:59:05;4.13;;;1.00;;
55655;SDS011;41530;52.382;5.270;2023-12-28T09:01:32;3.95;;;1.20;;
55655;SDS011;41530;52.382;5.270;2023-12-28T09:03:59;4.13;;;0.95;;
55655;SDS011;41530;52.382;5.270;2023-12-28T09:06:26;4.10;;;1.10;;
55655;SDS011;41530;52.382;5.270;2023-12-28T09:08:54;5.90;;;1.33;;
55655;SDS011;41530;52.382;5.270;2023-12-28T09:11:21;3.90;;;1.20;;
55655;SDS011;41530;52.382;5.270;2023-12-28T09:13:48;3.08;;;1.10;;
55655;SDS011;41530;52.382;5.270;2023-12-28T09:16:15;2.42;;;0.73;;
55655;SDS011;41530;52.382;5.270;2023-12-28T09:18:42;10.43;;;1.35;;
55655;SDS011;41530;52.382;5.270;2023-12-28T09:21:09;4.43;;;1.23;;
55655;SDS011;41530;52.382;5.270;2023-12-28T09:23:37;4.95;;;1.45;;
55655;SDS011;41530;52.382;5.270;2023-12-28T09:26:04;3.30;;;0.90;;
55655;SDS011;41530;52.382;5.270;2023-12-28T09:28:32;4.07;;;0.75;;
55655;SDS011;41530;52.382;5.270;2023-12-28T09:31:00;3.70;;;1.20;;
55655;SDS011;41530;52.382;5.270;2023-12-28T09:33:28;3.33;;;0.98;;
55655;SDS011;41530;52.382;5.270;2023-12-28T09:35:54;6.25;;;1.30;;
55655;SDS011;41530;52.382;5.270;2023-12-28T09:38:21;4.43;;;1.13;;
55655;SDS011;41530;52.382;5.270;2023-12-28T09:40:52;3.88;;;1.13;;
55655;SDS011;41530;52.382;5.270;2023-12-28T09:43:24;2.92;;;1.02;;
55655;SDS011;41530;52.382;5.270;2023-12-28T09:45:52;5.03;;;1.15;;
55655;SDS011;41530;52.382;5.270;2023-12-28T09:48:21;2.75;;;1.23;;
55655;SDS011;41530;52.382;5.270;2023-12-28T09:50:49;3.97;;;1.08;;
55655;SDS011;41530;52.382;5.270;2023-12-28T09:53:23;3.58;;;1.02;;
55655;SDS011;41530;52.382;5.270;2023-12-28T09:55:51;5.82;;;1.20;;
55655;SDS011;41530;52.382;5.270;2023-12-28T09:58:19;4.47;;;1.02;;
55655;SDS011;41530;52.382;5.270;2023-12-28T10:00:48;5.35;;;0.90;;
55655;SDS011;41530;52.382;5.270;2023-12-28T10:03:16;5.03;;;1.02;;
55655;SDS011;41530;52.382;5.270;2023-12-28T10:05:44;4.15;;;1.38;;
55655;SDS011;41530;52.382;5.270;2023-12-28T10:08:13;4.22;;;1.40;;
55655;SDS011;41530;52.382;5.270;2023-12-28T10:10:43;2.83;;;0.85;;
55655;SDS011;41530;52.382;5.270;2023-12-28T10:13:17;3.15;;;0.95;;
55655;SDS011;41530;52.382;5.270;2023-12-28T10:15:44;3.60;;;1.05;;
55655;SDS011;41530;52.382;5.270;2023-12-28T10:18:11;3.28;;;1.00;;
55655;SDS011;41530;52.382;5.270;2023-12-28T10:20:38;6.10;;;1.30;;
55655;SDS011;41530;52.382;5.270;2023-12-28T10:23:08;3.85;;;1.10;;
55655;SDS011;41530;52.382;5.270;2023-12-28T10:25:37;4.97;;;1.20;;
55655;SDS011;41530;52.382;5.270;2023-12-28T10:28:04;4.53;;;1.23;;
55655;SDS011;41530;52.382;5.270;2023-12-28T10:30:34;4.63;;;1.33;;
55655;SDS011;41530;52.382;5.270;2023-12-28T10:33:04;6.07;;;1.30;;
55655;SDS011;41530;52.382;5.270;2023-12-28T10:35:32;2.60;;;1.02;;
55655;SDS011;41530;52.382;5.270;2023-12-28T10:38:00;5.65;;;1.10;;
55655;SDS011;41530;52.382;5.270;2023-12-28T10:40:30;10.10;;;1.42;;
55655;SDS011;41530;52.382;5.270;2023-12-28T10:43:05;7.03;;;1.42;;
55655;SDS011;41530;52.382;5.270;2023-12-28T10:45:33;4.68;;;0.82;;
55655;SDS011;41530;52.382;5.270;2023-12-28T10:48:05;3.90;;;1.27;;
55655;SDS011;41530;52.382;5.270;2023-12-28T10:50:40;4.03;;;1.17;;
55655;SDS011;41530;52.382;5.270;2023-12-28T10:53:11;4.30;;;1.15;;
55655;SDS011;41530;52.382;5.270;2023-12-28T10:59:25;4.63;;;0.93;;
55655;SDS011;41530;52.382;5.270;2023-12-28T11:02:14;8.43;;;1.38;;
55655;SDS011;41530;52.382;5.270;2023-12-28T11:04:48;4.40;;;1.00;;
55655;SDS011;41530;52.382;5.270;2023-12-28T11:07:17;3.90;;;1.13;;
55655;SDS011;41530;52.382;5.270;2023-12-28T11:09:47;5.70;;;1.10;;
55655;SDS011;41530;52.382;5.270;2023-12-28T11:12:15;6.90;;;1.35;;
55655;SDS011;41530;52.382;5.270;2023-12-28T11:14:45;6.20;;;1.27;;
55655;SDS011;41530;52.382;5.270;2023-12-28T11:17:14;4.68;;;1.25;;
55655;SDS011;41530;52.382;5.270;2023-12-28T11:19:43;4.82;;;1.13;;
55655;SDS011;41530;52.382;5.270;2023-12-28T11:22:10;5.22;;;1.42;;
55655;SDS011;41530;52.382;5.270;2023-12-28T11:24:37;5.65;;;1.17;;
55655;SDS011;41530;52.382;5.270;2023-12-28T11:27:05;3.38;;;1.10;;
55655;SDS011;41530;52.382;5.270;2023-12-28T11:29:36;7.22;;;1.40;;
55655;SDS011;41530;52.382;5.270;2023-12-28T11:32:03;6.03;;;1.30;;
55655;SDS011;41530;52.382;5.270;2023-12-28T11:34:31;3.47;;;1.05;;
55655;SDS011;41530;52.382;5.270;2023-12-28T11:37:02;5.20;;;1.23;;
55655;SDS011;41530;52.382;5.270;2023-12-28T11:39:33;5.20;;;1.10;;
55655;SDS011;41530;52.382;5.270;2023-12-28T11:42:07;4.07;;;1.20;;
55655;SDS011;41530;52.382;5.270;2023-12-28T11:44:39;4.10;;;1.05;;
55655;SDS011;41530;52.382;5.270;2023-12-28T11:47:15;4.75;;;1.48;;
55655;SDS011;41530;52.382;5.270;2023-12-28T11:49:49;3.50;;;1.08;;
55655;SDS011;41530;52.382;5.270;2023-12-28T11:52:26;6.25;;;1.10;;
55655;SDS011;41530;52.382;5.270;2023-12-28T11:54:55;5.13;;;1.38;;
55655;SDS011;41530;52.382;5.270;2023-12-28T11:57:22;5.40;;;1.38;;
55655;SDS011;41530;52.382;5.270;2023-12-28T11:59:54;6.10;;;1.30;;
55655;SDS011;41530;52.382;5.270;2023-12-28T12:02:22;4.63;;;1.17;;
55655;SDS011;41530;52.382;5.270;2023-12-28T12:04:50;3.70;;;0.88;;
55655;SDS011;41530;52.382;5.270;2023-12-28T12:07:21;2.60;;;1.10;;
55655;SDS011;41530;52.382;5.270;2023-12-28T12:09:47;5.75;;;1.30;;
55655;SDS011;41530;52.382;5.270;2023-12-28T12:12:15;5.95;;;1.20;;
55655;SDS011;41530;52.382;5.270;2023-12-28T12:14:43;5.68;;;1.45;;
55655;SDS011;41530;52.382;5.270;2023-12-28T12:17:09;3.63;;;1.10;;
55655;SDS011;41530;52.382;5.270;2023-12-28T12:19:36;4.78;;;1.20;;
55655;SDS011;41530;52.382;5.270;2023-12-28T12:22:04;5.03;;;1.25;;
55655;SDS011;41530;52.382;5.270;2023-12-28T12:24:31;5.40;;;1.08;;
55655;SDS011;41530;52.382;5.270;2023-12-28T12:26:59;5.85;;;0.98;;
55655;SDS011;41530;52.382;5.270;2023-12-28T12:29:31;4.70;;;1.13;;
55655;SDS011;41530;52.382;5.270;2023-12-28T12:31:58;2.75;;;0.88;;
55655;SDS011;41530;52.382;5.270;2023-12-28T12:34:25;6.55;;;1.38;;
55655;SDS011;41530;52.382;5.270;2023-12-28T12:36:52;4.20;;;1.10;;
55655;SDS011;41530;52.382;5.270;2023-12-28T12:39:24;3.28;;;1.13;;
55655;SDS011;41530;52.382;5.270;2023-12-28T12:41:51;5.13;;;1.10;;
55655;SDS011;41530;52.382;5.270;2023-12-28T12:44:21;5.80;;;1.35;;
55655;SDS011;41530;52.382;5.270;2023-12-28T12:46:48;4.53;;;1.33;;
55655;SDS011;41530;52.382;5.270;2023-12-28T12:49:22;6.40;;;1.25;;
55655;SDS011;41530;52.382;5.270;2023-12-28T12:51:49;6.00;;;1.10;;
55655;SDS011;41530;52.382;5.270;2023-12-28T12:54:17;6.72;;;1.20;;
55655;SDS011;41530;52.382;5.270;2023-12-28T12:56:47;4.15;;;1.10;;
55655;SDS011;41530;52.382;5.270;2023-12-28T12:59:15;4.85;;;1.15;;
55655;SDS011;41530;52.382;5.270;2023-12-28T13:01:44;5.00;;;1.33;;
55655;SDS011;41530;52.382;5.270;2023-12-28T13:04:19;4.05;;;1.05;;
55655;SDS011;41530;52.382;5.270;2023-12-28T13:06:46;5.65;;;1.10;;
55655;SDS011;41530;52.382;5.270;2023-12-28T13:09:13;5.07;;;1.17;;
55655;SDS011;41530;52.382;5.270;2023-12-28T13:11:39;6.65;;;1.58;;
55655;SDS011;41530;52.382;5.270;2023-12-28T13:14:06;6.55;;;1.25;;
55655;SDS011;41530;52.382;5.270;2023-12-28T13:16:33;6.80;;;1.30;;
55655;SDS011;41530;52.382;5.270;2023-12-28T13:19:02;2.33;;;0.90;;
55655;SDS011;41530;52.382;5.270;2023-12-28T13:21:28;4.30;;;1.38;;
55655;SDS011;41530;52.382;5.270;2023-12-28T13:23:55;5.75;;;1.35;;
55655;SDS011;41530;52.382;5.270;2023-12-28T13:26:28;6.18;;;1.30;;
55655;SDS011;41530;52.382;5.270;2023-12-28T13:28:55;3.65;;;1.10;;
55655;SDS011;41530;52.382;5.270;2023-12-28T13:31:22;5.35;;;1.10;;
55655;SDS011;41530;52.382;5.270;2023-12-28T13:33:51;3.85;;;1.15;;
55655;SDS011;41530;52.382;5.270;2023-12-28T13:36:18;5.03;;;1.33;;
55655;SDS011;41530;52.382;5.270;2023-12-28T13:38:47;7.65;;;1.65;;
55655;SDS011;41530;52.382;5.270;2023-12-28T13:41:14;6.35;;;1.30;;
55655;SDS011;41530;52.382;5.270;2023-12-28T13:43:41;5.00;;;1.30;;
55655;SDS011;41530;52.382;5.270;2023-12-28T13:46:08;4.00;;;0.93;;
55655;SDS011;41530;52.382;5.270;2023-12-28T13:48:35;6.43;;;1.10;;
55655;SDS011;41530;52.382;5.270;2023-12-28T13:51:02;4.97;;;1.27;;
55655;SDS011;41530;52.382;5.270;2023-12-28T13:53:29;4.80;;;1.05;;
55655;SDS011;41530;52.382;5.270;2023-12-28T13:55:55;3.70;;;0.95;;
55655;SDS011;41530;52.382;5.270;2023-12-28T13:58:25;3.65;;;1.13;;
55655;SDS011;41530;52.382;5.270;2023-12-28T14:00:54;4.50;;;1.10;;
55655;SDS011;41530;52.382;5.270;2023-12-28T14:03:21;7.32;;;1.88;;
55655;SDS011;41530;52.382;5.270;2023-12-28T14:05:48;3.55;;;1.02;;
55655;SDS011;41530;52.382;5.270;2023-12-28T14:08:15;5.53;;;1.00;;
55655;SDS011;41530;52.382;5.270;2023-12-28T14:10:42;5.78;;;1.20;;
55655;SDS011;41530;52.382;5.270;2023-12-28T14:13:09;6.28;;;1.40;;
55655;SDS011;41530;52.382;5.270;2023-12-28T14:15:35;6.57;;;1.58;;
55655;SDS011;41530;52.382;5.270;2023-12-28T14:18:03;6.00;;;1.17;;
55655;SDS011;41530;52.382;5.270;2023-12-28T14:20:32;4.93;;;1.15;;
55655;SDS011;41530;52.382;5.270;2023-12-28T14:22:58;4.72;;;1.10;;
55655;SDS011;41530;52.382;5.270;2023-12-28T14:25:26;3.72;;;0.88;;
55655;SDS011;41530;52.382;5.270;2023-12-28T14:27:53;7.45;;;1.40;;
55655;SDS011;41530;52.382;5.270;2023-12-28T14:30:20;5.95;;;1.35;;
55655;SDS011;41530;52.382;5.270;2023-12-28T14:32:47;4.45;;;1.40;;
55655;SDS011;41530;52.382;5.270;2023-12-28T14:35:15;7.10;;;1.10;;
55655;SDS011;41530;52.382;5.270;2023-12-28T14:37:43;3.30;;;0.85;;
55655;SDS011;41530;52.382;5.270;2023-12-28T14:40:11;5.60;;;1.45;;
55655;SDS011;41530;52.382;5.270;2023-12-28T14:42:38;5.05;;;1.20;;
55655;SDS011;41530;52.382;5.270;2023-12-28T14:45:05;6.30;;;1.38;;
55655;SDS011;41530;52.382;5.270;2023-12-28T14:47:33;4.35;;;1.33;;
55655;SDS011;41530;52.382;5.270;2023-12-28T14:50:00;6.72;;;1.55;;
55655;SDS011;41530;52.382;5.270;2023-12-28T14:52:27;5.75;;;1.20;;
55655;SDS011;41530;52.382;5.270;2023-12-28T14:54:54;5.68;;;1.20;;
55655;SDS011;41530;52.382;5.270;2023-12-28T14:57:22;6.00;;;1.17;;
55655;SDS011;41530;52.382;5.270;2023-12-28T14:59:49;7.18;;;1.33;;